Time;durP1;ratioP1;P1;durP2;ratioP2;P2;SDS_P1;SDS_P2;PMS_P1;PMS_P2;Temp;Humidity;BMP_temperature;BMP_pressure;BME280_temperature;BME280_humidity;BME280_pressure;Samples;Min_cycle;Max_cycle;Signal;HPM_P1;HPM_P2
2023/12/12 00:00:43;;;;;;;4.68;1.60;;;;;;;;;;4932859;29;20047;-55
2023/12/12 00:03:09;;;;;;;4.93;1.45;;;;;;;;;;4929710;29;20043;-57
2023/12/12 00:05:36;;;;;;;6.05;1.25;;;;;;;;;;4928489;29;20038;-57
2023/12/12 00:08:02;;;;;;;5.30;1.33;;;;;;;;;;4926606;29;20042;-57
2023/12/12 00:10:28;;;;;;;7.95;1.35;;;;;;;;;;4944498;29;20043;-57
2023/12/12 00:12:54;;;;;;;3.13;1.15;;;;;;;;;;4930221;29;20036;-56
2023/12/12 00:15:20;;;;;;;4.15;1.20;;;;;;;;;;4932776;29;20062;-56
2023/12/12 00:17:47;;;;;;;5.03;1.20;;;;;;;;;;4933938;29;20047;-57
2023/12/12 00:20:13;;;;;;;3.85;1.10;;;;;;;;;;4931600;29;20042;-58
2023/12/12 00:22:39;;;;;;;4.63;1.13;;;;;;;;;;4931200;29;20050;-58
2023/12/12 00:25:06;;;;;;;5.15;1.45;;;;;;;;;;4932989;29;20059;-58
2023/12/12 00:27:32;;;;;;;3.25;1.10;;;;;;;;;;4932094;29;20039;-58
2023/12/12 00:29:58;;;;;;;4.53;1.17;;;;;;;;;;4948271;29;20052;-55
2023/12/12 00:32:24;;;;;;;5.45;1.15;;;;;;;;;;4947476;29;20063;-57
2023/12/12 00:34:51;;;;;;;4.22;1.17;;;;;;;;;;4929538;29;20043;-54
2023/12/12 00:37:17;;;;;;;3.20;1.15;;;;;;;;;;4940582;28;20166;-57
2023/12/12 00:39:43;;;;;;;4.70;1.20;;;;;;;;;;4915941;29;20411;-60
2023/12/12 00:42:09;;;;;;;2.30;1.20;;;;;;;;;;4931566;29;20399;-57
2023/12/12 00:44:36;;;;;;;3.40;1.33;;;;;;;;;;4930123;29;20074;-58
2023/12/12 00:47:02;;;;;;;4.07;1.30;;;;;;;;;;4930304;29;20048;-56
2023/12/12 00:49:28;;;;;;;2.92;1.10;;;;;;;;;;4930419;29;20048;-58
2023/12/12 00:51:54;;;;;;;9.70;1.73;;;;;;;;;;4932431;29;20158;-58
2023/12/12 00:54:20;;;;;;;7.68;1.77;;;;;;;;;;4928275;29;20035;-58
2023/12/12 00:56:47;;;;;;;5.03;1.35;;;;;;;;;;4943747;29;20032;-57
2023/12/12 00:59:14;;;;;;;3.60;1.48;;;;;;;;;;4928908;29;20055;-58
2023/12/12 01:01:41;;;;;;;3.03;1.50;;;;;;;;;;4927472;29;20039;-58
2023/12/12 01:04:09;;;;;;;5.72;1.48;;;;;;;;;;4930930;29;20043;-57
2023/12/12 01:06:36;;;;;;;5.88;1.40;;;;;;;;;;4915897;29;20059;-57
2023/12/12 01:09:02;;;;;;;5.50;1.35;;;;;;;;;;4929218;29;20044;-55
2023/12/12 01:11:28;;;;;;;4.28;1.58;;;;;;;;;;4933750;29;20091;-54
2023/12/12 01:13:54;;;;;;;4.13;1.77;;;;;;;;;;4930723;29;20055;-55
2023/12/12 01:16:21;;;;;;;4.65;1.48;;;;;;;;;;4946333;29;20051;-53
2023/12/12 01:18:47;;;;;;;5.75;1.65;;;;;;;;;;4935187;29;20035;-54
2023/12/12 01:21:13;;;;;;;2.53;1.40;;;;;;;;;;4944820;29;20058;-53
2023/12/12 01:23:46;;;;;;;6.18;1.42;;;;;;;;;;4930999;29;20043;-53
2023/12/12 01:26:12;;;;;;;7.95;1.50;;;;;;;;;;4948016;28;20512;-56
2023/12/12 01:28:39;;;;;;;5.20;1.23;;;;;;;;;;4935353;29;20055;-50
2023/12/12 01:31:05;;;;;;;3.33;1.35;;;;;;;;;;4934888;29;20111;-52
2023/12/12 01:33:31;;;;;;;3.15;1.17;;;;;;;;;;4931083;29;20043;-56
2023/12/12 01:35:57;;;;;;;2.85;1.25;;;;;;;;;;4933975;29;20060;-55
2023/12/12 01:38:24;;;;;;;1.55;1.20;;;;;;;;;;4934548;29;20035;-55
2023/12/12 01:40:50;;;;;;;1.92;1.45;;;;;;;;;;4934700;29;20051;-56
2023/12/12 01:43:30;;;;;;;2.55;1.40;;;;;;;;;;4918906;29;20066;-57
2023/12/12 01:45:59;;;;;;;3.58;1.65;;;;;;;;;;4946239;28;20048;-56
2023/12/12 01:48:26;;;;;;;3.65;1.30;;;;;;;;;;4929839;29;20055;-54
2023/12/12 01:50:54;;;;;;;3.60;1.23;;;;;;;;;;4950135;29;20051;-57
2023/12/12 01:53:30;;;;;;;4.20;1.48;;;;;;;;;;4931870;29;20066;-59
2023/12/12 01:55:59;;;;;;;2.47;1.20;;;;;;;;;;4931790;29;20977;-57
2023/12/12 01:58:25;;;;;;;2.75;1.38;;;;;;;;;;4931775;29;20895;-54
2023/12/12 02:00:53;;;;;;;4.55;1.60;;;;;;;;;;4932511;29;20043;-55
2023/12/12 02:03:22;;;;;;;6.85;1.48;;;;;;;;;;4931717;29;20045;-55
2023/12/12 02:05:48;;;;;;;6.25;1.50;;;;;;;;;;4918830;29;20035;-56
2023/12/12 02:08:14;;;;;;;2.00;1.38;;;;;;;;;;4921357;29;20036;-57
2023/12/12 02:10:40;;;;;;;4.18;1.77;;;;;;;;;;4933965;29;20043;-53
2023/12/12 02:13:07;;;;;;;3.60;1.35;;;;;;;;;;4933664;29;20044;-57
2023/12/12 02:15:33;;;;;;;3.17;1.30;;;;;;;;;;4934337;29;20047;-56
2023/12/12 02:17:59;;;;;;;3.20;1.13;;;;;;;;;;4928502;29;20065;-56
2023/12/12 02:20:26;;;;;;;4.55;1.48;;;;;;;;;;4945148;28;20056;-56
2023/12/12 02:22:52;;;;;;;3.90;1.23;;;;;;;;;;4930512;29;20031;-55
2023/12/12 02:25:18;;;;;;;3.70;1.10;;;;;;;;;;4935517;29;20035;-56
2023/12/12 02:27:46;;;;;;;5.50;1.52;;;;;;;;;;4934072;29;20095;-54
2023/12/12 02:30:14;;;;;;;3.63;2.17;;;;;;;;;;4934288;29;20042;-55
2023/12/12 02:32:40;;;;;;;4.47;1.40;;;;;;;;;;4918104;29;20028;-54
2023/12/12 02:35:06;;;;;;;6.43;1.58;;;;;;;;;;4928748;29;20051;-56
2023/12/12 02:37:33;;;;;;;3.92;1.52;;;;;;;;;;4927827;29;20103;-54
2023/12/12 02:39:59;;;;;;;5.25;2.70;;;;;;;;;;4934762;29;20046;-59
2023/12/12 02:42:25;;;;;;;6.43;2.17;;;;;;;;;;4933165;29;20040;-59
2023/12/12 02:44:51;;;;;;;3.67;1.40;;;;;;;;;;4947379;29;20048;-58
2023/12/12 02:47:17;;;;;;;3.15;1.40;;;;;;;;;;4931816;29;20039;-55
2023/12/12 02:49:43;;;;;;;4.35;1.15;;;;;;;;;;4947794;29;20050;-56
2023/12/12 02:52:10;;;;;;;3.25;1.20;;;;;;;;;;4944564;29;20491;-59
2023/12/12 02:54:36;;;;;;;3.63;1.40;;;;;;;;;;4937352;29;20415;-56
2023/12/12 02:57:02;;;;;;;3.38;1.20;;;;;;;;;;4947259;29;20047;-56
2023/12/12 02:59:28;;;;;;;3.58;1.20;;;;;;;;;;4930566;29;20047;-57
2023/12/12 03:01:54;;;;;;;4.18;1.33;;;;;;;;;;4921696;29;20395;-53
2023/12/12 03:04:21;;;;;;;5.00;1.40;;;;;;;;;;4934647;29;20074;-54
2023/12/12 03:06:47;;;;;;;1.92;1.00;;;;;;;;;;4932992;29;20039;-56
2023/12/12 03:09:13;;;;;;;3.08;1.27;;;;;;;;;;4917579;29;20043;-57
2023/12/12 03:11:39;;;;;;;3.67;1.35;;;;;;;;;;4933497;29;20038;-57
2023/12/12 03:14:05;;;;;;;3.92;1.30;;;;;;;;;;4932994;29;20043;-55
2023/12/12 03:16:31;;;;;;;2.70;1.08;;;;;;;;;;4926652;29;20040;-58
2023/12/12 03:18:58;;;;;;;1.17;1.00;;;;;;;;;;4928821;29;20047;-56
2023/12/12 03:21:24;;;;;;;3.28;1.17;;;;;;;;;;4929612;29;20067;-56
2023/12/12 03:23:50;;;;;;;4.88;1.20;;;;;;;;;;4931170;29;20043;-56
2023/12/12 03:26:16;;;;;;;1.50;0.90;;;;;;;;;;4916059;29;20148;-57
2023/12/12 03:28:42;;;;;;;3.25;1.00;;;;;;;;;;4942224;29;20028;-56
2023/12/12 03:31:08;;;;;;;3.80;1.23;;;;;;;;;;4933464;29;20052;-55
2023/12/12 03:33:34;;;;;;;1.85;0.80;;;;;;;;;;4948653;29;20391;-58
2023/12/12 03:36:06;;;;;;;2.72;1.30;;;;;;;;;;4933479;29;20126;-56
2023/12/12 03:38:32;;;;;;;2.15;1.30;;;;;;;;;;4932889;29;20503;-58
2023/12/12 03:40:58;;;;;;;2.60;1.23;;;;;;;;;;4931371;29;20035;-57
2023/12/12 03:43:24;;;;;;;3.95;1.08;;;;;;;;;;4948732;29;20487;-56
2023/12/12 03:45:50;;;;;;;3.30;1.40;;;;;;;;;;4946631;28;20059;-57
2023/12/12 03:48:17;;;;;;;4.70;1.05;;;;;;;;;;4930883;29;20040;-57
2023/12/12 03:50:43;;;;;;;1.60;1.13;;;;;;;;;;4929399;29;20047;-55
2023/12/12 03:53:09;;;;;;;1.75;0.82;;;;;;;;;;4931159;29;20043;-55
2023/12/12 03:55:36;;;;;;;1.27;0.93;;;;;;;;;;4941383;29;20047;-54
2023/12/12 03:58:03;;;;;;;1.77;1.17;;;;;;;;;;4929565;29;20070;-58
2023/12/12 04:00:29;;;;;;;7.68;1.60;;;;;;;;;;4931794;29;20044;-56
2023/12/12 04:02:55;;;;;;;2.15;1.30;;;;;;;;;;4932997;29;20040;-55
2023/12/12 04:08:14;;;;;;;3.22;1.42;;;;;;;;;;4896039;29;20550;-57
2023/12/12 04:10:40;;;;;;;4.55;1.35;;;;;;;;;;4885600;29;20040;-57
2023/12/12 04:13:06;;;;;;;2.15;1.27;;;;;;;;;;4900332;29;20052;-58
2023/12/12 04:15:32;;;;;;;4.50;1.50;;;;;;;;;;4918523;29;20051;-59
2023/12/12 04:17:59;;;;;;;4.40;1.00;;;;;;;;;;4935898;29;20047;-58
2023/12/12 04:20:27;;;;;;;2.75;1.10;;;;;;;;;;4916752;29;20036;-58
2023/12/12 04:22:54;;;;;;;4.40;1.15;;;;;;;;;;4934913;29;20024;-57
2023/12/12 04:25:20;;;;;;;2.90;1.30;;;;;;;;;;4905190;29;20043;-58
2023/12/12 04:27:46;;;;;;;3.28;1.27;;;;;;;;;;4917997;29;20039;-57
2023/12/12 04:30:13;;;;;;;3.55;1.10;;;;;;;;;;4935609;29;20031;-56
2023/12/12 04:32:39;;;;;;;3.15;1.20;;;;;;;;;;4932364;29;20492;-57
2023/12/12 04:35:08;;;;;;;2.08;1.15;;;;;;;;;;4927137;29;20051;-58
2023/12/12 04:37:34;;;;;;;2.03;1.02;;;;;;;;;;4919021;29;20043;-56
2023/12/12 04:40:01;;;;;;;1.88;1.00;;;;;;;;;;4935158;29;20203;-56
2023/12/12 04:42:27;;;;;;;3.88;1.67;;;;;;;;;;4916790;29;20043;-58
2023/12/12 04:44:53;;;;;;;5.13;2.05;;;;;;;;;;4903300;29;20035;-58
2023/12/12 04:47:19;;;;;;;4.90;1.67;;;;;;;;;;4932194;29;20047;-56
2023/12/12 04:49:45;;;;;;;4.70;1.42;;;;;;;;;;4936218;29;20024;-57
2023/12/12 04:52:11;;;;;;;2.13;1.02;;;;;;;;;;4935399;29;20051;-59
2023/12/12 04:54:38;;;;;;;3.70;1.10;;;;;;;;;;4934787;29;20042;-58
2023/12/12 04:57:04;;;;;;;1.58;1.10;;;;;;;;;;4887401;29;20391;-57
2023/12/12 04:59:30;;;;;;;2.55;1.00;;;;;;;;;;4918773;29;20027;-57
2023/12/12 05:01:56;;;;;;;1.17;1.00;;;;;;;;;;4934628;29;20050;-57
2023/12/12 05:04:22;;;;;;;3.28;1.20;;;;;;;;;;4934800;29;20055;-58
2023/12/12 05:06:49;;;;;;;7.43;2.10;;;;;;;;;;4935299;29;20038;-59
2023/12/12 05:09:15;;;;;;;2.30;1.40;;;;;;;;;;4917249;29;20403;-58
2023/12/12 05:11:41;;;;;;;1.20;1.10;;;;;;;;;;4918012;29;20039;-59
2023/12/12 05:14:07;;;;;;;3.05;1.10;;;;;;;;;;4918633;29;20039;-60
2023/12/12 05:16:34;;;;;;;2.72;1.25;;;;;;;;;;4918744;29;20051;-60
2023/12/12 05:19:00;;;;;;;1.75;1.17;;;;;;;;;;4899817;29;20044;-55
2023/12/12 05:21:27;;;;;;;2.75;1.38;;;;;;;;;;4926435;29;20059;-59
2023/12/12 05:23:53;;;;;;;1.52;1.27;;;;;;;;;;4933694;29;20507;-57
2023/12/12 05:26:19;;;;;;;1.90;1.40;;;;;;;;;;4918327;29;20525;-57
2023/12/12 05:28:46;;;;;;;2.22;1.42;;;;;;;;;;4918876;29;20040;-60
2023/12/12 05:31:12;;;;;;;2.95;2.08;;;;;;;;;;4930927;29;20066;-60
2023/12/12 05:33:38;;;;;;;3.00;1.25;;;;;;;;;;4924756;29;20055;-60
2023/12/12 05:36:05;;;;;;;3.38;1.50;;;;;;;;;;4911659;29;20055;-59
2023/12/12 05:38:31;;;;;;;2.13;1.17;;;;;;;;;;4885041;29;20032;-58
2023/12/12 05:40:57;;;;;;;2.53;1.70;;;;;;;;;;4931424;29;20039;-60
2023/12/12 05:43:23;;;;;;;1.77;1.50;;;;;;;;;;4914059;29;20059;-59
2023/12/12 05:45:50;;;;;;;2.85;1.70;;;;;;;;;;4901115;29;20039;-58
2023/12/12 05:48:16;;;;;;;3.33;1.98;;;;;;;;;;4882345;29;20039;-60
2023/12/12 05:50:42;;;;;;;2.92;2.15;;;;;;;;;;4915519;29;20492;-59
2023/12/12 05:53:08;;;;;;;2.55;1.92;;;;;;;;;;4931519;29;20066;-56
2023/12/12 05:55:34;;;;;;;3.50;2.28;;;;;;;;;;4932905;29;20357;-57
2023/12/12 05:58:01;;;;;;;5.00;2.90;;;;;;;;;;4936977;29;20052;-59
2023/12/12 06:00:27;;;;;;;2.90;2.40;;;;;;;;;;4919340;29;20052;-59
2023/12/12 06:02:58;;;;;;;3.33;2.28;;;;;;;;;;4903733;29;20027;-58
2023/12/12 06:05:24;;;;;;;2.95;2.25;;;;;;;;;;4929505;29;20526;-57
2023/12/12 06:07:50;;;;;;;4.25;2.60;;;;;;;;;;4929168;29;20052;-60
2023/12/12 06:10:18;;;;;;;3.38;2.42;;;;;;;;;;4935295;29;20515;-60
2023/12/12 06:12:45;;;;;;;4.20;2.40;;;;;;;;;;4936086;29;20047;-54
2023/12/12 06:15:11;;;;;;;4.32;2.40;;;;;;;;;;4918677;29;20044;-60
2023/12/12 06:17:40;;;;;;;4.03;2.67;;;;;;;;;;4912707;29;20503;-57
2023/12/12 06:20:07;;;;;;;5.05;3.10;;;;;;;;;;4934482;29;20120;-60
2023/12/12 06:22:34;;;;;;;5.72;2.85;;;;;;;;;;4920334;29;20040;-58
2023/12/12 06:25:00;;;;;;;4.32;2.40;;;;;;;;;;4900962;29;20055;-58
2023/12/12 06:27:26;;;;;;;3.95;2.50;;;;;;;;;;4919306;29;20048;-57
2023/12/12 06:29:52;;;;;;;4.32;2.72;;;;;;;;;;4934599;29;20052;-58
2023/12/12 06:32:19;;;;;;;4.63;2.65;;;;;;;;;;4931427;29;20330;-58
2023/12/12 06:34:46;;;;;;;6.60;4.00;;;;;;;;;;4911210;29;20036;-59
2023/12/12 06:37:12;;;;;;;6.25;3.90;;;;;;;;;;4929725;29;20039;-58
2023/12/12 06:39:38;;;;;;;5.15;3.10;;;;;;;;;;4935003;29;20048;-56
2023/12/12 06:42:05;;;;;;;5.05;3.30;;;;;;;;;;4918647;29;20035;-56
2023/12/12 06:44:31;;;;;;;5.70;3.50;;;;;;;;;;4901827;29;20019;-59
2023/12/12 06:46:58;;;;;;;4.93;3.17;;;;;;;;;;4886719;29;20043;-59
2023/12/12 06:49:24;;;;;;;7.10;3.67;;;;;;;;;;4919284;29;20044;-59
2023/12/12 06:51:50;;;;;;;5.70;3.33;;;;;;;;;;4931461;29;20054;-56
2023/12/12 06:54:16;;;;;;;5.22;2.70;;;;;;;;;;4915058;29;20051;-55
2023/12/12 06:56:43;;;;;;;5.75;3.42;;;;;;;;;;4930239;29;20046;-57
2023/12/12 06:59:09;;;;;;;5.78;3.15;;;;;;;;;;4900764;29;20048;-56
2023/12/12 07:01:35;;;;;;;6.07;3.08;;;;;;;;;;4935175;29;20035;-58
2023/12/12 07:04:01;;;;;;;4.30;2.80;;;;;;;;;;4935143;29;20031;-60
2023/12/12 07:06:27;;;;;;;4.65;3.20;;;;;;;;;;4932329;29;20051;-58
2023/12/12 07:08:53;;;;;;;7.07;3.00;;;;;;;;;;4931427;29;20039;-58
2023/12/12 07:11:19;;;;;;;6.95;4.13;;;;;;;;;;4915460;29;20052;-58
2023/12/12 07:13:45;;;;;;;6.07;3.97;;;;;;;;;;4932908;29;20051;-58
2023/12/12 07:16:12;;;;;;;5.20;2.88;;;;;;;;;;4933379;29;20043;-55
2023/12/12 07:18:38;;;;;;;3.65;2.40;;;;;;;;;;4930290;29;20046;-57
2023/12/12 07:21:05;;;;;;;3.85;2.30;;;;;;;;;;4906576;29;20032;-56
2023/12/12 07:23:32;;;;;;;3.90;2.00;;;;;;;;;;4933865;29;20039;-59
2023/12/12 07:25:59;;;;;;;3.30;2.20;;;;;;;;;;4933862;29;20051;-59
2023/12/12 07:28:25;;;;;;;4.47;2.22;;;;;;;;;;4915589;29;20043;-58
2023/12/12 07:30:55;;;;;;;3.05;2.05;;;;;;;;;;4903602;29;20396;-57
2023/12/12 07:33:22;;;;;;;1.92;1.60;;;;;;;;;;4933203;29;20070;-58
2023/12/12 07:35:48;;;;;;;2.92;1.40;;;;;;;;;;4929818;29;20056;-57
2023/12/12 07:38:16;;;;;;;1.98;1.40;;;;;;;;;;4916890;29;20035;-57
2023/12/12 07:40:43;;;;;;;2.40;1.42;;;;;;;;;;4931422;29;20047;-58
2023/12/12 07:43:09;;;;;;;4.03;2.35;;;;;;;;;;4916851;29;20040;-56
2023/12/12 07:45:36;;;;;;;3.30;1.63;;;;;;;;;;4934134;29;20067;-57
2023/12/12 07:48:03;;;;;;;2.75;1.90;;;;;;;;;;4914275;29;20051;-59
2023/12/12 07:50:29;;;;;;;3.08;2.30;;;;;;;;;;4914174;29;20035;-56
2023/12/12 07:52:55;;;;;;;2.53;1.95;;;;;;;;;;4930678;29;20046;-56
2023/12/12 07:55:21;;;;;;;2.03;1.70;;;;;;;;;;4915090;29;20050;-56
2023/12/12 07:57:47;;;;;;;1.65;1.30;;;;;;;;;;4933692;29;20387;-54
2023/12/12 08:00:14;;;;;;;2.83;1.70;;;;;;;;;;4933421;29;20046;-54
2023/12/12 08:02:40;;;;;;;3.90;2.10;;;;;;;;;;4916321;29;20035;-57
2023/12/12 08:05:07;;;;;;;2.83;1.60;;;;;;;;;;4933752;29;20118;-56
2023/12/12 08:07:33;;;;;;;1.90;1.30;;;;;;;;;;4914265;29;20036;-57
2023/12/12 08:09:59;;;;;;;2.45;1.55;;;;;;;;;;4914034;29;20475;-54
2023/12/12 08:12:25;;;;;;;2.72;1.13;;;;;;;;;;4913336;29;20043;-57
2023/12/12 08:14:55;;;;;;;1.63;1.08;;;;;;;;;;4918793;29;20055;-56
2023/12/12 08:17:21;;;;;;;;;;;;;;;;;;4915817;29;20051;-55
2023/12/12 08:19:47;;;;;;;1.48;1.20;;;;;;;;;;4932077;29;19922;-57
2023/12/12 08:22:13;;;;;;;1.95;1.38;;;;;;;;;;4902981;29;20059;-56
2023/12/12 08:24:39;;;;;;;3.05;1.20;;;;;;;;;;4916703;29;20136;-57
2023/12/12 08:27:07;;;;;;;4.68;2.00;;;;;;;;;;4933072;29;20403;-57
2023/12/12 08:29:33;;;;;;;3.55;1.80;;;;;;;;;;4932700;29;20058;-56
2023/12/12 08:31:59;;;;;;;3.38;1.67;;;;;;;;;;4931717;29;20058;-55
2023/12/12 08:34:25;;;;;;;1.95;1.35;;;;;;;;;;4932569;29;20050;-55
2023/12/12 08:36:52;;;;;;;2.22;1.13;;;;;;;;;;4930480;29;20042;-56
2023/12/12 08:39:18;;;;;;;2.08;1.50;;;;;;;;;;4912985;29;20036;-57
2023/12/12 08:41:44;;;;;;;1.27;0.80;;;;;;;;;;4913936;29;20495;-56
2023/12/12 08:44:10;;;;;;;1.13;0.90;;;;;;;;;;4931216;29;20039;-55
2023/12/12 08:46:36;;;;;;;1.15;0.88;;;;;;;;;;4929325;29;20032;-56
2023/12/12 08:49:03;;;;;;;1.05;0.95;;;;;;;;;;4892711;29;20043;-56
2023/12/12 08:51:30;;;;;;;1.20;0.90;;;;;;;;;;4916653;29;20039;-55
2023/12/12 08:53:58;;;;;;;2.80;1.50;;;;;;;;;;4929242;29;20361;-56
2023/12/12 08:56:25;;;;;;;1.92;0.90;;;;;;;;;;4915855;29;20067;-55
2023/12/12 08:58:51;;;;;;;2.92;1.58;;;;;;;;;;4900644;29;20035;-57
2023/12/12 09:01:17;;;;;;;1.75;1.15;;;;;;;;;;4913110;29;20044;-55
2023/12/12 09:03:44;;;;;;;2.55;1.08;;;;;;;;;;4932455;29;20067;-56
2023/12/12 09:06:10;;;;;;;3.58;1.52;;;;;;;;;;4933017;29;20038;-56
2023/12/12 09:08:41;;;;;;;2.72;1.00;;;;;;;;;;4932312;29;20054;-58
2023/12/12 09:11:09;;;;;;;1.10;0.85;;;;;;;;;;4928965;29;20058;-58
2023/12/12 09:13:36;;;;;;;4.07;1.20;;;;;;;;;;4931645;29;20048;-58
2023/12/12 09:16:02;;;;;;;0.77;0.70;;;;;;;;;;4897633;29;20039;-55
2023/12/12 09:18:28;;;;;;;1.58;1.35;;;;;;;;;;4911054;29;20498;-57
2023/12/12 09:20:54;;;;;;;1.27;1.00;;;;;;;;;;4913258;29;20499;-55
2023/12/12 09:23:20;;;;;;;1.67;1.10;;;;;;;;;;4911727;29;20047;-55
2023/12/12 09:25:46;;;;;;;1.15;1.00;;;;;;;;;;4932768;29;20052;-57
2023/12/12 09:28:13;;;;;;;2.80;2.10;;;;;;;;;;4916052;29;20044;-57
2023/12/12 09:30:39;;;;;;;4.25;2.17;;;;;;;;;;4918752;29;20047;-57
2023/12/12 09:33:06;;;;;;;3.88;2.20;;;;;;;;;;4934477;29;20063;-56
2023/12/12 09:35:35;;;;;;;4.85;2.97;;;;;;;;;;4915508;29;20035;-59
2023/12/12 09:38:01;;;;;;;5.93;3.10;;;;;;;;;;4919084;29;20027;-57
2023/12/12 09:40:27;;;;;;;3.47;1.55;;;;;;;;;;4936671;29;20063;-57
2023/12/12 09:42:53;;;;;;;2.45;1.40;;;;;;;;;;4931814;29;20054;-57
2023/12/12 09:45:23;;;;;;;4.05;1.50;;;;;;;;;;4904261;29;20083;-57
2023/12/12 09:47:50;;;;;;;2.38;1.50;;;;;;;;;;4904563;29;20050;-58
2023/12/12 09:50:16;;;;;;;2.33;1.40;;;;;;;;;;4908904;29;20047;-58
2023/12/12 09:52:44;;;;;;;4.38;1.20;;;;;;;;;;4928477;29;20047;-57
2023/12/12 09:55:10;;;;;;;3.72;1.30;;;;;;;;;;4918341;29;20128;-58
2023/12/12 09:57:37;;;;;;;1.45;1.10;;;;;;;;;;4903237;29;20048;-56
2023/12/12 10:00:04;;;;;;;1.60;0.98;;;;;;;;;;4934785;29;20043;-56
2023/12/12 10:02:37;;;;;;;;;;;;;;;;;;4919214;29;20559;-57
2023/12/12 10:05:12;;;;;;;2.20;0.90;;;;;;;;;;4936136;29;20362;-56
2023/12/12 10:07:40;;;;;;;2.33;0.90;;;;;;;;;;4933102;29;20031;-57
2023/12/12 10:10:11;;;;;;;4.80;2.10;;;;;;;;;;4937028;29;20058;-56
2023/12/12 10:12:37;;;;;;;3.10;1.55;;;;;;;;;;4918734;29;20039;-58
2023/12/12 10:15:20;;;;;;;3.03;1.20;;;;;;;;;;4915332;29;20048;-56
2023/12/12 10:17:46;;;;;;;2.95;1.08;;;;;;;;;;4918314;29;20027;-58
2023/12/12 10:20:13;;;;;;;1.40;0.63;;;;;;;;;;4932839;29;20396;-58
2023/12/12 10:22:39;;;;;;;1.33;0.90;;;;;;;;;;4936095;29;20042;-55
2023/12/12 10:25:10;;;;;;;3.13;0.85;;;;;;;;;;4935441;29;20039;-57
2023/12/12 10:27:42;;;;;;;3.83;1.40;;;;;;;;;;4925192;29;20508;-58
2023/12/12 10:30:09;;;;;;;0.90;0.80;;;;;;;;;;4936014;29;20047;-56
2023/12/12 10:32:38;;;;;;;0.80;0.68;;;;;;;;;;4918991;29;20051;-58
2023/12/12 10:35:07;;;;;;;1.33;0.80;;;;;;;;;;4915292;29;20690;-57
2023/12/12 10:37:34;;;;;;;2.58;1.30;;;;;;;;;;4919167;29;20043;-57
2023/12/12 10:40:17;;;;;;;2.20;0.68;;;;;;;;;;4933856;29;20047;-57
2023/12/12 10:42:44;;;;;;;1.42;0.82;;;;;;;;;;4932554;29;20044;-57
2023/12/12 10:45:12;;;;;;;2.25;1.10;;;;;;;;;;4917349;29;20054;-57
2023/12/12 10:47:46;;;;;;;2.65;0.90;;;;;;;;;;4931322;29;20410;-57
2023/12/12 10:50:14;;;;;;;0.98;0.85;;;;;;;;;;4931841;29;20042;-57
2023/12/12 10:52:43;;;;;;;2.05;1.00;;;;;;;;;;4900756;29;20403;-58
2023/12/12 10:55:11;;;;;;;3.05;1.85;;;;;;;;;;4918869;29;20051;-58
2023/12/12 10:57:38;;;;;;;1.40;1.10;;;;;;;;;;4914610;29;20048;-58
2023/12/12 11:00:11;;;;;;;3.15;1.70;;;;;;;;;;4934291;29;20159;-57
2023/12/12 11:02:41;;;;;;;1.42;1.25;;;;;;;;;;4904732;29;20039;-57
2023/12/12 11:05:10;;;;;;;3.00;1.00;;;;;;;;;;4931994;29;20024;-56
2023/12/12 11:07:38;;;;;;;3.70;1.20;;;;;;;;;;4935715;29;20031;-57
2023/12/12 11:10:08;;;;;;;1.00;0.80;;;;;;;;;;4934769;29;20044;-58
2023/12/12 11:12:38;;;;;;;1.02;0.93;;;;;;;;;;4932627;29;20035;-56
2023/12/12 11:15:07;;;;;;;3.17;1.40;;;;;;;;;;4914317;29;20040;-57
2023/12/12 11:17:34;;;;;;;4.35;1.42;;;;;;;;;;4903239;29;20047;-58
2023/12/12 11:20:12;;;;;;;1.30;1.00;;;;;;;;;;4917829;29;20368;-55
2023/12/12 11:22:42;;;;;;;1.70;1.10;;;;;;;;;;4901752;29;20035;-55
2023/12/12 11:25:13;;;;;;;3.28;1.50;;;;;;;;;;4932536;29;20051;-57
2023/12/12 11:27:41;;;;;;;7.65;3.00;;;;;;;;;;4935099;29;20047;-57
2023/12/12 11:30:09;;;;;;;5.75;2.60;;;;;;;;;;4934969;29;20035;-56
2023/12/12 11:32:35;;;;;;;5.72;2.60;;;;;;;;;;4919101;29;20031;-57
2023/12/12 11:35:08;;;;;;;7.57;3.20;;;;;;;;;;4928686;29;20052;-57
2023/12/12 11:37:41;;;;;;;4.15;1.92;;;;;;;;;;4934283;29;20055;-55
2023/12/12 11:40:09;;;;;;;4.10;1.92;;;;;;;;;;4931057;29;20050;-56
2023/12/12 11:42:35;;;;;;;4.80;2.22;;;;;;;;;;4921633;29;20040;-55
2023/12/12 11:45:01;;;;;;;3.45;2.00;;;;;;;;;;4932727;29;20040;-55
2023/12/12 11:47:34;;;;;;;5.93;2.30;;;;;;;;;;4927892;29;20062;-57
2023/12/12 11:50:14;;;;;;;3.92;2.20;;;;;;;;;;4929835;29;20063;-57
2023/12/12 11:52:41;;;;;;;1.85;1.27;;;;;;;;;;4917971;29;20143;-55
2023/12/12 11:55:10;;;;;;;4.32;2.00;;;;;;;;;;4934686;29;20035;-57
2023/12/12 11:57:36;;;;;;;2.47;1.50;;;;;;;;;;4916815;29;20039;-55
2023/12/12 12:00:04;;;;;;;2.55;1.52;;;;;;;;;;4915837;29;20518;-57
2023/12/12 12:02:31;;;;;;;3.90;1.52;;;;;;;;;;4911552;29;20051;-55
2023/12/12 12:04:58;;;;;;;3.08;1.40;;;;;;;;;;4902286;29;20551;-56
2023/12/12 12:07:25;;;;;;;1.92;1.50;;;;;;;;;;4930981;29;20059;-58
2023/12/12 12:09:52;;;;;;;2.58;1.17;;;;;;;;;;4933778;29;20040;-57
2023/12/12 12:12:19;;;;;;;1.80;1.10;;;;;;;;;;4901453;29;20059;-55
2023/12/12 12:14:46;;;;;;;1.70;1.00;;;;;;;;;;4933517;29;20039;-57
2023/12/12 12:17:12;;;;;;;1.80;1.00;;;;;;;;;;4900626;29;20040;-56
2023/12/12 12:19:38;;;;;;;1.15;0.98;;;;;;;;;;4931528;29;20032;-56
2023/12/12 12:22:10;;;;;;;2.25;0.93;;;;;;;;;;4916385;29;20039;-57
2023/12/12 12:24:46;;;;;;;3.72;1.30;;;;;;;;;;4902875;29;20043;-58
2023/12/12 12:27:14;;;;;;;4.20;2.25;;;;;;;;;;4929462;29;20146;-56
2023/12/12 12:29:41;;;;;;;5.78;2.10;;;;;;;;;;4932400;29;20368;-55
2023/12/12 12:32:10;;;;;;;3.63;1.65;;;;;;;;;;4914918;29;20054;-57
2023/12/12 12:34:37;;;;;;;34.75;9.18;;;;;;;;;;4931830;29;20046;-54
2023/12/12 12:37:04;;;;;;;6.43;3.10;;;;;;;;;;4930223;29;20408;-57
2023/12/12 12:39:43;;;;;;;7.63;3.50;;;;;;;;;;4902111;29;20043;-54
2023/12/12 12:42:10;;;;;;;10.15;5.05;;;;;;;;;;4915730;29;20602;-56
2023/12/12 12:44:41;;;;;;;9.50;5.80;;;;;;;;;;4929960;29;20044;-56
2023/12/12 12:47:07;;;;;;;4.53;2.70;;;;;;;;;;4927423;29;20039;-57
2023/12/12 12:49:33;;;;;;;1.17;0.90;;;;;;;;;;4912784;29;20032;-56
2023/12/12 12:51:59;;;;;;;1.85;0.98;;;;;;;;;;4899232;29;20047;-57
2023/12/12 12:54:25;;;;;;;2.50;1.50;;;;;;;;;;4915915;29;20395;-54
2023/12/12 12:56:52;;;;;;;2.80;1.63;;;;;;;;;;4932693;29;20042;-55
2023/12/12 12:59:18;;;;;;;2.92;1.95;;;;;;;;;;4931554;29;20032;-55
2023/12/12 13:01:45;;;;;;;2.60;1.70;;;;;;;;;;4932651;29;20052;-54
2023/12/12 13:04:12;;;;;;;3.65;2.50;;;;;;;;;;4899308;29;20044;-55
2023/12/12 13:06:39;;;;;;;1.63;1.13;;;;;;;;;;4900594;29;20031;-53
2023/12/12 13:09:09;;;;;;;3.85;1.83;;;;;;;;;;4913868;29;20043;-56
2023/12/12 13:11:39;;;;;;;2.33;1.40;;;;;;;;;;4917113;29;20044;-56
2023/12/12 13:14:05;;;;;;;1.35;1.20;;;;;;;;;;4932212;29;20055;-58
2023/12/12 13:16:32;;;;;;;1.02;0.80;;;;;;;;;;4914763;29;20047;-57
2023/12/12 13:18:58;;;;;;;1.35;0.88;;;;;;;;;;4931042;29;20039;-56
2023/12/12 13:21:25;;;;;;;1.30;0.80;;;;;;;;;;4930056;29;20059;-57
2023/12/12 13:23:51;;;;;;;1.73;1.25;;;;;;;;;;4927320;29;20052;-55
2023/12/12 13:26:17;;;;;;;2.05;0.93;;;;;;;;;;4914609;29;20046;-56
2023/12/12 13:28:44;;;;;;;1.40;1.00;;;;;;;;;;4927597;29;20035;-58
2023/12/12 13:31:10;;;;;;;2.05;1.13;;;;;;;;;;4898881;29;20048;-54
2023/12/12 13:33:36;;;;;;;1.55;0.98;;;;;;;;;;4913442;29;20499;-56
2023/12/12 13:36:04;;;;;;;1.63;0.80;;;;;;;;;;4929001;29;20043;-57
2023/12/12 13:38:31;;;;;;;2.55;0.75;;;;;;;;;;4915141;29;20367;-57
2023/12/12 13:40:57;;;;;;;1.55;0.90;;;;;;;;;;4916283;29;20138;-57
2023/12/12 13:43:23;;;;;;;1.83;1.13;;;;;;;;;;4930603;29;20054;-57
2023/12/12 13:45:49;;;;;;;6.25;2.78;;;;;;;;;;4909654;29;20059;-57
2023/12/12 13:48:17;;;;;;;2.00;1.20;;;;;;;;;;4905340;29;20031;-58
2023/12/12 13:50:44;;;;;;;5.55;1.85;;;;;;;;;;4931528;29;20058;-56
2023/12/12 13:53:10;;;;;;;2.75;1.27;;;;;;;;;;4932625;29;20348;-55
2023/12/12 13:55:36;;;;;;;2.88;1.60;;;;;;;;;;4913223;29;20047;-56
2023/12/12 13:58:02;;;;;;;2.67;1.23;;;;;;;;;;4916553;29;20059;-57
2023/12/12 14:00:29;;;;;;;3.28;1.30;;;;;;;;;;4915185;29;20391;-57
2023/12/12 14:02:55;;;;;;;3.25;1.50;;;;;;;;;;4913483;29;20055;-56
2023/12/12 14:05:21;;;;;;;3.25;2.05;;;;;;;;;;4908666;29;20504;-57
2023/12/12 14:07:47;;;;;;;6.32;3.20;;;;;;;;;;4932119;29;20027;-55
2023/12/12 14:10:13;;;;;;;7.28;4.57;;;;;;;;;;4912303;29;20036;-57
2023/12/12 14:12:39;;;;;;;11.75;5.07;;;;;;;;;;4917202;29;20044;-57
2023/12/12 14:15:07;;;;;;;10.25;4.93;;;;;;;;;;4914048;29;20067;-59
2023/12/12 14:17:33;;;;;;;13.27;5.40;;;;;;;;;;4932750;29;20054;-58
2023/12/12 14:19:59;;;;;;;11.48;5.93;;;;;;;;;;4935929;29;20047;-57
2023/12/12 14:22:25;;;;;;;7.78;4.40;;;;;;;;;;4935469;29;20516;-58
2023/12/12 14:24:52;;;;;;;8.75;5.13;;;;;;;;;;4934684;29;20070;-57
2023/12/12 14:27:18;;;;;;;12.68;6.80;;;;;;;;;;4933835;29;20047;-55
2023/12/12 14:29:44;;;;;;;9.60;7.40;;;;;;;;;;4934366;29;20407;-57
2023/12/12 14:32:10;;;;;;;10.23;6.32;;;;;;;;;;4900539;29;20127;-56
2023/12/12 14:34:37;;;;;;;9.02;5.40;;;;;;;;;;4918585;29;20048;-56
2023/12/12 14:37:03;;;;;;;13.52;5.50;;;;;;;;;;4930545;29;20039;-56
2023/12/12 14:39:30;;;;;;;10.90;5.80;;;;;;;;;;4935885;29;20027;-55
2023/12/12 14:41:56;;;;;;;13.07;5.25;;;;;;;;;;4903008;29;20043;-56
2023/12/12 14:44:22;;;;;;;11.68;5.38;;;;;;;;;;4931027;29;20031;-56